createdAt,value
2023-01-18T00:01:02.510Z,-3.50
2023-01-18T00:03:33.532Z,-3.50
2023-01-18T00:06:03.080Z,-3.60
2023-01-18T00:08:32.741Z,-3.60
2023-01-18T00:11:05.261Z,-3.60
2023-01-18T00:13:36.225Z,-3.60
2023-01-18T00:16:05.899Z,-3.60
2023-01-18T00:18:36.132Z,-3.70
2023-01-18T00:21:05.603Z,-3.70
2023-01-18T00:23:35.077Z,-3.70
2023-01-18T00:26:03.763Z,-3.70
2023-01-18T00:28:32.762Z,-3.70
2023-01-18T00:31:02.957Z,-3.70
2023-01-18T00:33:31.463Z,-3.70
2023-01-18T00:36:01.489Z,-3.70
2023-01-18T00:38:31.144Z,-3.70
2023-01-18T00:40:59.752Z,-3.80
2023-01-18T00:43:39.921Z,-3.80
2023-01-18T00:46:11.972Z,-3.80
2023-01-18T00:48:41.757Z,-3.80
2023-01-18T00:51:13.198Z,-3.90
2023-01-18T00:53:44.223Z,-3.80
2023-01-18T00:56:15.488Z,-3.90
2023-01-18T00:58:44.936Z,-3.80
2023-01-18T01:01:15.815Z,-3.90
2023-01-18T01:04:01.620Z,-3.90
2023-01-18T01:06:45.731Z,-3.90
2023-01-18T01:09:16.384Z,-4.00
2023-01-18T01:12:05.589Z,-4.00
2023-01-18T01:14:52.548Z,-4.10
2023-01-18T01:17:40.001Z,-4.10
2023-01-18T01:20:27.734Z,-4.10
2023-01-18T01:23:14.213Z,-4.10
2023-01-18T01:25:59.964Z,-4.10
2023-01-18T01:28:28.478Z,-4.10
2023-01-18T01:31:00.596Z,-4.10
2023-01-18T01:33:32.080Z,-4.10
2023-01-18T01:36:01.589Z,-4.10
2023-01-18T01:38:30.658Z,-4.20
2023-01-18T01:41:00.985Z,-4.10
2023-01-18T01:43:44.243Z,-4.20
2023-01-18T01:46:36.609Z,-4.20
2023-01-18T01:49:11.671Z,-4.20
2023-01-18T01:51:43.260Z,-4.20
2023-01-18T01:54:15.536Z,-4.20
2023-01-18T01:56:46.687Z,-4.20
2023-01-18T01:59:16.400Z,-4.20
2023-01-18T02:01:46.355Z,-4.20
2023-01-18T02:04:16.477Z,-4.20
2023-01-18T02:06:45.005Z,-4.20
2023-01-18T02:09:16.116Z,-4.20
2023-01-18T02:11:45.556Z,-4.20
2023-01-18T02:14:17.040Z,-4.30
2023-01-18T02:17:07.961Z,-4.30
2023-01-18T02:20:19.669Z,-4.30
2023-01-18T02:23:13.748Z,-4.30
2023-01-18T02:26:02.385Z,-4.30
2023-01-18T02:28:35.951Z,-4.40
2023-01-18T02:31:12.028Z,-4.40
2023-01-18T02:33:46.987Z,-4.40
2023-01-18T02:36:26.496Z,-4.50
2023-01-18T02:38:58.800Z,-4.40
2023-01-18T02:41:47.207Z,-4.40
2023-01-18T02:44:40.966Z,-4.40
2023-01-18T02:47:11.071Z,-4.40
2023-01-18T02:49:39.860Z,-4.40
2023-01-18T02:52:09.682Z,-4.40
2023-01-18T02:54:40.728Z,-4.50
2023-01-18T02:57:12.676Z,-4.40
2023-01-18T02:59:46.855Z,-4.50
2023-01-18T03:02:18.148Z,-4.40
2023-01-18T03:04:55.451Z,-4.50
2023-01-18T03:07:28.013Z,-4.50
2023-01-18T03:09:57.664Z,-4.50
2023-01-18T03:12:46.174Z,-4.60
2023-01-18T03:15:22.066Z,-4.60
2023-01-18T03:17:57.431Z,-4.60
2023-01-18T03:20:30.392Z,-4.70
2023-01-18T03:23:20.598Z,-4.60
2023-01-18T03:25:51.840Z,-4.60
2023-01-18T03:28:40.820Z,-4.60
2023-01-18T03:31:30.930Z,-4.60
2023-01-18T03:34:07.166Z,-4.50
2023-01-18T03:36:39.878Z,-4.60
2023-01-18T03:39:11.584Z,-4.60
2023-01-18T03:41:45.026Z,-4.70
2023-01-18T03:44:17.610Z,-4.70
2023-01-18T03:46:48.084Z,-4.70
2023-01-18T03:49:17.999Z,-4.70
2023-01-18T03:52:09.976Z,-4.70
2023-01-18T03:54:48.327Z,-4.80
2023-01-18T03:57:21.557Z,-4.80
2023-01-18T03:59:50.546Z,-4.80
2023-01-18T04:02:22.456Z,-4.80
2023-01-18T04:04:57.533Z,-4.80
2023-01-18T04:07:26.918Z,-4.80
2023-01-18T04:09:55.647Z,-4.80
2023-01-18T04:12:24.191Z,-4.80
2023-01-18T04:14:52.777Z,-4.80
2023-01-18T04:17:22.700Z,-4.80
2023-01-18T04:19:51.288Z,-4.80
2023-01-18T04:22:19.794Z,-4.80
2023-01-18T04:24:48.291Z,-4.80
2023-01-18T04:27:16.879Z,-4.80
2023-01-18T04:29:45.435Z,-4.80
2023-01-18T04:32:13.995Z,-4.80
2023-01-18T04:34:44.005Z,-4.80
2023-01-18T04:37:12.563Z,-4.90
2023-01-18T04:39:41.055Z,-4.90
2023-01-18T04:42:10.068Z,-4.90
2023-01-18T04:44:38.522Z,-4.90
2023-01-18T04:47:07.079Z,-4.90
2023-01-18T04:49:35.551Z,-4.90
2023-01-18T04:52:07.662Z,-4.90
2023-01-18T04:54:36.147Z,-4.90
2023-01-18T04:57:04.778Z,-4.90
2023-01-18T04:59:33.609Z,-5.00
2023-01-18T05:02:02.141Z,-4.90
2023-01-18T05:04:30.754Z,-4.90
2023-01-18T05:07:02.345Z,-5.00
2023-01-18T05:09:32.270Z,-5.00
2023-01-18T05:12:00.803Z,-4.90
2023-01-18T05:14:29.671Z,-4.90
2023-01-18T05:16:58.204Z,-5.00
2023-01-18T05:19:30.754Z,-5.00
2023-01-18T05:21:59.258Z,-5.00
2023-01-18T05:24:29.883Z,-5.00
2023-01-18T05:27:00.181Z,-5.10
2023-01-18T05:29:28.938Z,-5.10
2023-01-18T05:31:57.445Z,-5.10
2023-01-18T05:34:27.361Z,-5.10
2023-01-18T05:36:55.841Z,-5.10
2023-01-18T05:39:24.838Z,-5.10
2023-01-18T05:41:53.430Z,-5.10
2023-01-18T05:44:23.406Z,-5.10
2023-01-18T05:46:51.895Z,-5.10
2023-01-18T05:49:20.781Z,-5.10
2023-01-18T05:51:49.256Z,-5.10
2023-01-18T05:54:17.725Z,-5.10
2023-01-18T05:56:46.257Z,-5.10
2023-01-18T05:59:15.778Z,-5.20
2023-01-18T06:01:45.898Z,-5.10
2023-01-18T06:04:14.600Z,-5.10
2023-01-18T06:06:44.447Z,-5.10
2023-01-18T06:09:14.158Z,-5.10
2023-01-18T06:11:45.111Z,-5.10
2023-01-18T06:14:13.740Z,-5.10
2023-01-18T06:16:42.590Z,-5.10
2023-01-18T06:19:12.628Z,-5.10
2023-01-18T06:21:41.151Z,-5.10
2023-01-18T06:24:09.924Z,-5.10
2023-01-18T06:26:38.405Z,-5.10
2023-01-18T06:29:07.247Z,-5.10
2023-01-18T06:31:36.188Z,-5.10
2023-01-18T06:34:09.519Z,-5.10
2023-01-18T06:36:40.234Z,-5.10
2023-01-18T06:39:08.917Z,-5.10
2023-01-18T06:41:37.753Z,-5.10
2023-01-18T06:44:06.727Z,-5.10
2023-01-18T06:46:35.975Z,-5.10
2023-01-18T06:49:04.479Z,-5.10
2023-01-18T06:51:33.254Z,-5.10
2023-01-18T06:54:03.346Z,-5.10
2023-01-18T06:56:31.841Z,-5.00
2023-01-18T06:59:01.218Z,-5.00
2023-01-18T07:01:30.490Z,-5.00
2023-01-18T07:03:59.153Z,-5.00
2023-01-18T07:06:27.817Z,-5.00
2023-01-18T07:08:56.494Z,-5.00
2023-01-18T07:11:26.491Z,-5.00
2023-01-18T07:13:55.061Z,-5.00
2023-01-18T07:16:23.812Z,-5.00
2023-01-18T07:18:52.610Z,-5.10
2023-01-18T07:21:23.025Z,-5.00
2023-01-18T07:23:52.309Z,-5.00
2023-01-18T07:26:20.849Z,-4.40
2023-01-18T07:28:51.196Z,-5.10
2023-01-18T07:31:20.462Z,-5.10
2023-01-18T07:33:49.185Z,-5.10
2023-01-18T07:36:18.232Z,-5.10
2023-01-18T07:38:47.401Z,-5.10
2023-01-18T07:41:17.249Z,-5.00
2023-01-18T07:43:46.202Z,-5.00
2023-01-18T07:46:20.700Z,-5.00
2023-01-18T07:48:49.945Z,-5.00
2023-01-18T07:51:18.631Z,-5.00
2023-01-18T07:53:47.218Z,-5.00
2023-01-18T07:56:17.458Z,-5.00
2023-01-18T07:58:46.617Z,-4.90
2023-01-18T08:01:20.072Z,-4.90
2023-01-18T08:03:50.408Z,-4.90
2023-01-18T08:06:25.074Z,-4.80
2023-01-18T08:08:55.472Z,-4.80
2023-01-18T08:11:24.347Z,-4.80
2023-01-18T08:13:53.183Z,-4.80
2023-01-18T08:16:23.833Z,-4.80
2023-01-18T08:18:52.851Z,-4.70
2023-01-18T08:21:21.532Z,-4.70
2023-01-18T08:23:51.284Z,-4.70
2023-01-18T08:26:19.838Z,-4.60
2023-01-18T08:28:48.521Z,-4.60
2023-01-18T08:31:19.867Z,-4.50
2023-01-18T08:33:51.187Z,-4.40
2023-01-18T08:36:21.910Z,-4.40
2023-01-18T08:38:51.658Z,-4.30
2023-01-18T08:41:20.623Z,-4.20
2023-01-18T08:43:51.207Z,-4.20
2023-01-18T08:46:20.357Z,-4.10
2023-01-18T08:48:52.240Z,-4.10
2023-01-18T08:51:23.205Z,-4.00
2023-01-18T08:53:53.659Z,-3.90
2023-01-18T08:56:22.585Z,-3.90
2023-01-18T08:58:52.331Z,-3.80
2023-01-18T09:01:23.456Z,-3.70
2023-01-18T09:03:55.915Z,-3.70
2023-01-18T09:06:24.654Z,-3.60
2023-01-18T09:08:53.750Z,-3.60
2023-01-18T09:11:22.432Z,-3.60
2023-01-18T09:14:00.605Z,-3.60
2023-01-18T09:16:30.497Z,-3.50
2023-01-18T09:19:01.519Z,-3.40
2023-01-18T09:21:30.201Z,-3.40
2023-01-18T09:23:59.778Z,-3.30
2023-01-18T09:26:30.688Z,-3.30
2023-01-18T09:28:59.382Z,-3.20
2023-01-18T09:31:30.947Z,-3.10
2023-01-18T09:34:17.944Z,-3.10
2023-01-18T09:36:47.530Z,-3.00
2023-01-18T09:39:16.128Z,-3.00
2023-01-18T09:41:47.686Z,-2.90
2023-01-18T09:44:23.120Z,-2.80
2023-01-18T09:46:55.914Z,-2.70
2023-01-18T09:49:31.429Z,-2.60
2023-01-18T09:52:19.669Z,-2.50
2023-01-18T09:54:55.030Z,-2.40
2023-01-18T09:57:40.916Z,-2.30
2023-01-18T10:00:21.807Z,-2.30
2023-01-18T10:02:54.005Z,-2.20
2023-01-18T10:05:28.006Z,-2.20
2023-01-18T10:08:04.527Z,-2.10
2023-01-18T10:10:38.558Z,-2.00
2023-01-18T10:13:38.307Z,-2.00
2023-01-18T10:16:14.852Z,-1.90
2023-01-18T10:18:48.397Z,-1.90
2023-01-18T10:21:31.145Z,-1.80
2023-01-18T10:24:19.463Z,-1.70
2023-01-18T10:26:50.366Z,-1.60
2023-01-18T10:29:24.019Z,-1.60
2023-01-18T10:31:59.981Z,-1.50
2023-01-18T10:34:33.184Z,-1.50
2023-01-18T10:37:14.695Z,-1.40
2023-01-18T10:39:49.659Z,-1.30
2023-01-18T10:42:23.268Z,-1.30
2023-01-18T10:44:52.615Z,-1.20
2023-01-18T10:47:22.090Z,-1.20
2023-01-18T10:49:52.380Z,-1.10
2023-01-18T10:52:27.687Z,-1.10
2023-01-18T10:54:58.318Z,-1.00
2023-01-18T10:57:31.725Z,-0.90
2023-01-18T11:00:01.138Z,-0.90
2023-01-18T11:02:34.955Z,-0.80
2023-01-18T11:05:17.168Z,-0.80
2023-01-18T11:07:47.281Z,-0.70
2023-01-18T11:10:26.423Z,-0.70
2023-01-18T11:13:00.013Z,-0.60
2023-01-18T11:15:36.955Z,-0.60
2023-01-18T11:18:17.698Z,-0.50
2023-01-18T11:20:50.220Z,-0.50
2023-01-18T11:23:23.562Z,-0.40
2023-01-18T11:26:00.890Z,-0.40
2023-01-18T11:28:37.725Z,-0.30
2023-01-18T11:31:13.121Z,-0.30
2023-01-18T11:33:51.475Z,-0.20
2023-01-18T11:36:22.102Z,-0.20
2023-01-18T11:38:52.303Z,-0.10
2023-01-18T11:41:23.777Z,-0.10
2023-01-18T11:44:05.548Z,0.00
2023-01-18T11:46:41.687Z,0.00
2023-01-18T11:49:25.809Z,0.10
2023-01-18T11:51:59.176Z,0.10
2023-01-18T11:54:35.996Z,0.20
2023-01-18T11:57:05.213Z,0.20
2023-01-18T11:59:37.912Z,0.30
2023-01-18T12:02:33.658Z,0.30
2023-01-18T12:05:28.346Z,0.40
2023-01-18T12:08:08.202Z,0.40
2023-01-18T12:10:48.728Z,0.40
2023-01-18T12:13:36.249Z,0.50
2023-01-18T12:16:18.922Z,0.50
2023-01-18T12:19:20.623Z,0.60
2023-01-18T12:22:10.845Z,0.60
2023-01-18T12:24:53.498Z,0.60
2023-01-18T12:27:29.554Z,0.70
2023-01-18T12:30:12.327Z,0.60
2023-01-18T12:33:02.389Z,0.60
2023-01-18T12:35:50.875Z,0.70
2023-01-18T12:38:24.536Z,0.70
2023-01-18T12:41:30.491Z,0.80
2023-01-18T12:44:52.368Z,0.80
2023-01-18T12:47:36.515Z,0.90
2023-01-18T12:50:15.527Z,1.00
2023-01-18T12:52:49.617Z,1.00
2023-01-18T12:55:23.792Z,1.10
2023-01-18T12:57:56.185Z,1.20
2023-01-18T13:00:33.301Z,1.20
2023-01-18T13:03:07.269Z,1.20
2023-01-18T13:05:49.310Z,1.20
2023-01-18T13:08:28.610Z,1.20
2023-01-18T13:11:06.941Z,1.20
2023-01-18T13:13:37.165Z,1.20
2023-01-18T13:16:20.812Z,1.20
2023-01-18T13:18:56.180Z,1.30
2023-01-18T13:21:37.725Z,1.30
2023-01-18T13:24:15.593Z,1.30
2023-01-18T13:26:44.390Z,1.30
2023-01-18T13:29:24.340Z,1.30
2023-01-18T13:31:54.835Z,1.40
2023-01-18T13:34:32.184Z,1.40
2023-01-18T13:37:14.368Z,1.40
2023-01-18T13:39:49.611Z,1.50
2023-01-18T13:42:27.822Z,1.50
2023-01-18T13:45:20.482Z,1.40
2023-01-18T13:48:03.607Z,1.50
2023-01-18T13:50:52.529Z,1.50
2023-01-18T13:53:24.406Z,1.50
2023-01-18T13:56:24.623Z,1.60
2023-01-18T13:59:26.301Z,1.60
2023-01-18T14:02:08.902Z,1.60
2023-01-18T14:04:41.679Z,1.70
2023-01-18T14:07:23.015Z,1.70
2023-01-18T14:09:52.611Z,1.70
2023-01-18T14:12:49.649Z,1.70
2023-01-18T14:15:49.711Z,1.70
2023-01-18T14:18:26.526Z,1.70
2023-01-18T14:21:16.744Z,1.70
2023-01-18T14:24:21.948Z,1.70
2023-01-18T14:26:54.345Z,1.70
2023-01-18T14:29:34.380Z,1.70
2023-01-18T14:32:04.834Z,1.70
2023-01-18T14:34:44.023Z,1.70
2023-01-18T14:37:31.168Z,1.70
2023-01-18T14:40:17.904Z,1.80
2023-01-18T14:42:51.390Z,1.70
2023-01-18T14:45:29.802Z,1.70
2023-01-18T14:48:01.153Z,1.70
2023-01-18T14:50:34.793Z,1.60
2023-01-18T14:53:06.438Z,1.60
2023-01-18T14:55:36.680Z,1.60
2023-01-18T14:58:13.907Z,1.50
2023-01-18T15:00:48.223Z,1.50
2023-01-18T15:03:24.094Z,1.40
2023-01-18T15:06:01.809Z,1.40
2023-01-18T15:08:35.401Z,1.40
2023-01-18T15:11:06.387Z,1.40
2023-01-18T15:13:41.757Z,1.30
2023-01-18T15:16:10.776Z,1.30
2023-01-18T15:18:39.577Z,1.30
2023-01-18T15:21:17.377Z,1.30
2023-01-18T15:23:52.173Z,1.40
2023-01-18T15:26:36.080Z,1.40
2023-01-18T15:29:16.264Z,1.40
2023-01-18T15:31:51.575Z,1.40
2023-01-18T15:34:27.769Z,1.40
2023-01-18T15:36:58.031Z,1.40
2023-01-18T15:39:28.747Z,1.40
2023-01-18T15:42:03.925Z,1.40
2023-01-18T15:44:44.693Z,1.40
2023-01-18T15:47:22.615Z,1.40
2023-01-18T15:49:52.988Z,1.40
2023-01-18T15:52:44.906Z,1.40
2023-01-18T15:55:24.620Z,1.40
2023-01-18T15:58:01.464Z,1.30
2023-01-18T16:00:33.694Z,1.30
2023-01-18T16:03:04.401Z,1.20
2023-01-18T16:05:33.866Z,1.20
2023-01-18T16:08:19.304Z,1.10
2023-01-18T16:10:57.892Z,1.10
2023-01-18T16:13:38.551Z,1.10
2023-01-18T16:16:16.424Z,1.10
2023-01-18T16:18:49.257Z,1.00
2023-01-18T16:21:27.879Z,1.00
2023-01-18T16:23:58.476Z,1.00
2023-01-18T16:26:32.812Z,0.90
2023-01-18T16:29:11.029Z,0.90
2023-01-18T16:31:43.358Z,0.80
2023-01-18T16:34:25.203Z,0.80
2023-01-18T16:36:54.959Z,0.80
2023-01-18T16:39:27.727Z,0.80
2023-01-18T16:41:59.707Z,0.80
2023-01-18T16:44:29.151Z,0.80
2023-01-18T16:46:57.881Z,0.80
2023-01-18T16:49:27.589Z,0.80
2023-01-18T16:51:57.370Z,0.80
2023-01-18T16:54:26.321Z,0.70
2023-01-18T16:56:55.504Z,0.70
2023-01-18T16:59:26.256Z,0.70
2023-01-18T17:01:55.432Z,0.70
2023-01-18T17:04:26.953Z,0.70
2023-01-18T17:06:56.880Z,0.80
2023-01-18T17:09:29.177Z,0.80
2023-01-18T17:12:03.321Z,0.80
2023-01-18T17:14:33.762Z,0.80
2023-01-18T17:17:08.604Z,0.90
2023-01-18T17:19:38.050Z,1.00
2023-01-18T17:22:07.867Z,0.90
2023-01-18T17:24:37.101Z,1.00
2023-01-18T17:27:11.990Z,1.00
2023-01-18T17:29:42.542Z,1.00
2023-01-18T17:32:13.522Z,0.90
2023-01-18T17:34:42.581Z,1.00
2023-01-18T17:37:11.415Z,1.00
2023-01-18T17:39:49.558Z,1.00
2023-01-18T17:42:29.811Z,1.00
2023-01-18T17:45:10.431Z,1.00
2023-01-18T17:47:40.913Z,1.10
2023-01-18T17:50:12.211Z,1.10
2023-01-18T17:52:42.695Z,1.10
2023-01-18T17:55:24.308Z,1.10
2023-01-18T17:57:56.615Z,1.20
2023-01-18T18:00:28.582Z,1.20
2023-01-18T18:03:00.394Z,1.20
2023-01-18T18:05:30.842Z,1.20
2023-01-18T18:08:07.367Z,1.20
2023-01-18T18:10:36.393Z,1.20
2023-01-18T18:13:05.510Z,1.30
2023-01-18T18:15:37.078Z,1.30
2023-01-18T18:18:21.946Z,1.30
2023-01-18T18:20:51.849Z,1.30
2023-01-18T18:23:21.066Z,1.30
2023-01-18T18:25:51.891Z,1.30
2023-01-18T18:28:23.477Z,1.30
2023-01-18T18:31:01.735Z,1.30
2023-01-18T18:33:33.890Z,1.30
2023-01-18T18:36:03.271Z,1.40
2023-01-18T18:38:32.134Z,1.40
2023-01-18T18:41:05.820Z,1.40
2023-01-18T18:43:37.814Z,1.40
2023-01-18T18:46:08.783Z,1.50
2023-01-18T18:48:38.113Z,1.50
2023-01-18T18:51:09.375Z,1.50
2023-01-18T18:53:45.067Z,1.50
2023-01-18T18:56:16.631Z,1.50
2023-01-18T18:58:48.378Z,1.40
2023-01-18T19:01:25.554Z,1.40
2023-01-18T19:03:54.995Z,1.40
2023-01-18T19:06:25.648Z,1.40
2023-01-18T19:08:55.114Z,1.50
2023-01-18T19:11:24.081Z,1.50
2023-01-18T19:13:53.226Z,1.50
2023-01-18T19:16:33.345Z,1.50
2023-01-18T19:19:03.456Z,1.50
2023-01-18T19:21:32.712Z,1.50
2023-01-18T19:24:06.270Z,1.50
2023-01-18T19:26:39.689Z,1.60
2023-01-18T19:29:10.291Z,1.60
2023-01-18T19:31:40.964Z,1.60
2023-01-18T19:34:12.621Z,1.60
2023-01-18T19:36:54.018Z,1.50
2023-01-18T19:39:23.307Z,1.50
2023-01-18T19:41:53.024Z,1.50
2023-01-18T19:44:23.322Z,1.50
2023-01-18T19:46:54.368Z,1.40
2023-01-18T19:49:26.247Z,1.40
2023-01-18T19:51:56.371Z,1.40
2023-01-18T19:54:32.287Z,1.30
2023-01-18T19:57:01.395Z,1.30
2023-01-18T19:59:30.798Z,1.30
2023-01-18T20:02:05.063Z,1.30
2023-01-18T20:04:34.827Z,1.30
2023-01-18T20:07:04.830Z,1.30
2023-01-18T20:09:43.381Z,1.30
2023-01-18T20:12:13.909Z,1.30
2023-01-18T20:14:45.050Z,1.30
2023-01-18T20:17:19.264Z,1.30
2023-01-18T20:19:51.047Z,1.30
2023-01-18T20:22:21.659Z,1.30
2023-01-18T20:24:50.789Z,1.30
2023-01-18T20:27:20.202Z,1.40
2023-01-18T20:29:52.536Z,1.40
2023-01-18T20:32:23.738Z,1.40
2023-01-18T20:34:52.717Z,1.40
2023-01-18T20:37:22.090Z,1.40
2023-01-18T20:39:51.853Z,1.40
2023-01-18T20:42:21.963Z,1.50
2023-01-18T20:45:09.275Z,1.50
2023-01-18T20:47:47.533Z,1.50
2023-01-18T20:50:18.194Z,1.60
2023-01-18T20:52:50.647Z,1.60
2023-01-18T20:55:21.258Z,1.60
2023-01-18T20:57:53.084Z,1.70
2023-01-18T21:00:23.715Z,1.70
2023-01-18T21:02:56.953Z,1.70
2023-01-18T21:05:32.187Z,1.70
2023-01-18T21:08:02.977Z,1.70
2023-01-18T21:10:41.465Z,1.70
2023-01-18T21:13:11.814Z,1.80
2023-01-18T21:15:46.040Z,1.80
2023-01-18T21:18:16.389Z,1.80
2023-01-18T21:20:45.286Z,1.80
2023-01-18T21:23:16.443Z,1.90
2023-01-18T21:25:58.708Z,1.90
2023-01-18T21:28:31.071Z,1.80
2023-01-18T21:31:03.070Z,1.90
2023-01-18T21:33:34.152Z,1.90
2023-01-18T21:36:09.475Z,1.90
2023-01-18T21:38:38.447Z,1.80
2023-01-18T21:41:24.900Z,1.80
2023-01-18T21:44:07.614Z,1.80
2023-01-18T21:46:39.809Z,1.80
2023-01-18T21:49:41.133Z,1.70
2023-01-18T21:52:36.801Z,1.70
2023-01-18T21:55:09.598Z,1.60
2023-01-18T21:57:41.320Z,1.60
2023-01-18T22:00:11.921Z,1.60
2023-01-18T22:02:41.047Z,1.50
2023-01-18T22:05:14.098Z,1.50
2023-01-18T22:07:43.758Z,1.50
2023-01-18T22:10:13.002Z,1.50
2023-01-18T22:12:42.367Z,1.50
2023-01-18T22:15:14.793Z,1.50
2023-01-18T22:17:43.936Z,1.50
2023-01-18T22:20:17.957Z,1.50
2023-01-18T22:22:46.773Z,1.50
2023-01-18T22:25:15.714Z,1.40
2023-01-18T22:27:47.479Z,1.30
2023-01-18T22:30:19.232Z,1.30
2023-01-18T22:32:48.186Z,1.20
2023-01-18T22:35:18.921Z,1.10
2023-01-18T22:37:47.650Z,1.10
2023-01-18T22:40:18.595Z,1.10
2023-01-18T22:42:47.324Z,1.20
2023-01-18T22:45:18.684Z,1.20
2023-01-18T22:47:47.286Z,1.20
2023-01-18T22:50:21.036Z,1.20
2023-01-18T22:52:49.733Z,1.10
2023-01-18T22:55:18.939Z,1.10
2023-01-18T22:57:47.699Z,1.20
2023-01-18T23:00:17.939Z,1.10
2023-01-18T23:02:46.835Z,1.20
2023-01-18T23:05:17.040Z,1.20
2023-01-18T23:07:47.424Z,1.20
2023-01-18T23:10:16.778Z,1.30
2023-01-18T23:12:45.804Z,1.30
2023-01-18T23:15:34.351Z,1.30
2023-01-18T23:18:03.024Z,1.30
2023-01-18T23:20:32.005Z,1.40
2023-01-18T23:23:02.155Z,1.50
2023-01-18T23:25:32.323Z,1.50
2023-01-18T23:28:03.472Z,1.50
2023-01-18T23:30:34.996Z,1.50
2023-01-18T23:33:03.847Z,1.60
2023-01-18T23:35:32.861Z,1.60
2023-01-18T23:38:06.614Z,1.60
2023-01-18T23:40:52.533Z,1.60
2023-01-18T23:43:38.580Z,1.60
2023-01-18T23:46:25.279Z,1.50
2023-01-18T23:49:11.240Z,1.50
2023-01-18T23:51:57.638Z,1.40
2023-01-18T23:54:27.859Z,1.40
2023-01-18T23:56:56.508Z,1.40
2023-01-18T23:59:24.994Z,1.30
